sensor_id;sensor_type;location;lat;lon;timestamp;P1;durP1;ratioP1;P2;durP2;ratioP2
57746;SDS011;43580;44.014;20.466;2022-10-12T00:01:40;155.68;;;112.03;;
57746;SDS011;43580;44.014;20.466;2022-10-12T00:04:06;148.00;;;106.75;;
57746;SDS011;43580;44.014;20.466;2022-10-12T00:06:32;144.40;;;102.57;;
57746;SDS011;43580;44.014;20.466;2022-10-12T00:08:58;153.43;;;105.07;;
57746;SDS011;43580;44.014;20.466;2022-10-12T00:11:25;138.70;;;103.75;;
57746;SDS011;43580;44.014;20.466;2022-10-12T00:13:52;147.48;;;103.00;;
57746;SDS011;43580;44.014;20.466;2022-10-12T00:16:19;137.07;;;100.20;;
57746;SDS011;43580;44.014;20.466;2022-10-12T00:18:52;125.97;;;94.53;;
57746;SDS011;43580;44.014;20.466;2022-10-12T00:21:18;130.52;;;94.93;;
57746;SDS011;43580;44.014;20.466;2022-10-12T00:23:45;129.32;;;96.68;;
57746;SDS011;43580;44.014;20.466;2022-10-12T00:26:29;125.63;;;91.43;;
57746;SDS011;43580;44.014;20.466;2022-10-12T00:28:56;131.50;;;95.88;;
57746;SDS011;43580;44.014;20.466;2022-10-12T00:31:23;122.35;;;89.75;;
57746;SDS011;43580;44.014;20.466;2022-10-12T00:33:49;121.88;;;90.97;;
57746;SDS011;43580;44.014;20.466;2022-10-12T00:36:22;121.50;;;89.85;;
57746;SDS011;43580;44.014;20.466;2022-10-12T00:38:50;122.63;;;90.82;;
57746;SDS011;43580;44.014;20.466;2022-10-12T00:41:16;122.13;;;89.38;;
57746;SDS011;43580;44.014;20.466;2022-10-12T00:43:43;110.63;;;84.20;;
57746;SDS011;43580;44.014;20.466;2022-10-12T00:48:49;104.20;;;79.90;;
57746;SDS011;43580;44.014;20.466;2022-10-12T00:51:17;105.18;;;77.22;;
57746;SDS011;43580;44.014;20.466;2022-10-12T00:53:46;104.05;;;79.07;;
57746;SDS011;43580;44.014;20.466;2022-10-12T00:56:17;110.20;;;77.13;;
57746;SDS011;43580;44.014;20.466;2022-10-12T00:58:45;117.57;;;84.45;;
57746;SDS011;43580;44.014;20.466;2022-10-12T01:01:12;120.40;;;88.40;;
57746;SDS011;43580;44.014;20.466;2022-10-12T01:03:38;80.40;;;45.45;;
57746;SDS011;43580;44.014;20.466;2022-10-12T01:06:05;119.97;;;56.28;;
57746;SDS011;43580;44.014;20.466;2022-10-12T01:08:31;70.95;;;33.95;;
57746;SDS011;43580;44.014;20.466;2022-10-12T01:10:57;309.98;;;169.43;;
57746;SDS011;43580;44.014;20.466;2022-10-12T01:13:23;112.32;;;80.30;;
57746;SDS011;43580;44.014;20.466;2022-10-12T01:15:53;105.95;;;75.95;;
57746;SDS011;43580;44.014;20.466;2022-10-12T01:18:25;109.18;;;78.07;;
57746;SDS011;43580;44.014;20.466;2022-10-12T01:21:05;106.40;;;77.15;;
57746;SDS011;43580;44.014;20.466;2022-10-12T01:31:19;109.10;;;77.82;;
57746;SDS011;43580;44.014;20.466;2022-10-12T01:33:52;104.35;;;76.70;;
57746;SDS011;43580;44.014;20.466;2022-10-12T01:36:38;111.93;;;77.13;;
57746;SDS011;43580;44.014;20.466;2022-10-12T01:39:20;107.18;;;78.55;;
57746;SDS011;43580;44.014;20.466;2022-10-12T01:41:59;105.93;;;72.22;;
57746;SDS011;43580;44.014;20.466;2022-10-12T01:44:26;110.63;;;76.75;;
57746;SDS011;43580;44.014;20.466;2022-10-12T01:46:54;107.60;;;74.93;;
57746;SDS011;43580;44.014;20.466;2022-10-12T01:49:29;102.00;;;70.63;;
57746;SDS011;43580;44.014;20.466;2022-10-12T02:02:05;100.82;;;71.95;;
57746;SDS011;43580;44.014;20.466;2022-10-12T02:04:38;101.25;;;69.93;;
57746;SDS011;43580;44.014;20.466;2022-10-12T02:07:56;104.18;;;73.20;;
57746;SDS011;43580;44.014;20.466;2022-10-12T02:10:01;99.63;;;70.78;;
57746;SDS011;43580;44.014;20.466;2022-10-12T02:12:27;105.50;;;75.05;;
57746;SDS011;43580;44.014;20.466;2022-10-12T02:14:56;108.50;;;77.75;;
57746;SDS011;43580;44.014;20.466;2022-10-12T02:17:24;111.40;;;77.95;;
57746;SDS011;43580;44.014;20.466;2022-10-12T02:19:57;107.57;;;76.32;;
57746;SDS011;43580;44.014;20.466;2022-10-12T02:22:24;112.80;;;77.93;;
57746;SDS011;43580;44.014;20.466;2022-10-12T02:24:51;109.07;;;75.35;;
57746;SDS011;43580;44.014;20.466;2022-10-12T02:27:19;100.35;;;72.10;;
57746;SDS011;43580;44.014;20.466;2022-10-12T02:29:46;101.15;;;72.80;;
57746;SDS011;43580;44.014;20.466;2022-10-12T02:32:21;104.97;;;76.90;;
57746;SDS011;43580;44.014;20.466;2022-10-12T02:34:56;103.25;;;74.60;;
57746;SDS011;43580;44.014;20.466;2022-10-12T02:37:31;108.90;;;76.50;;
57746;SDS011;43580;44.014;20.466;2022-10-12T02:42:30;110.30;;;76.07;;
57746;SDS011;43580;44.014;20.466;2022-10-12T02:45:00;104.65;;;77.28;;
57746;SDS011;43580;44.014;20.466;2022-10-12T02:47:30;108.38;;;78.68;;
57746;SDS011;43580;44.014;20.466;2022-10-12T02:49:57;107.72;;;80.18;;
57746;SDS011;43580;44.014;20.466;2022-10-12T02:52:24;106.30;;;74.65;;
57746;SDS011;43580;44.014;20.466;2022-10-12T02:54:51;102.03;;;76.28;;
57746;SDS011;43580;44.014;20.466;2022-10-12T02:57:17;116.10;;;79.63;;
57746;SDS011;43580;44.014;20.466;2022-10-12T02:59:43;101.05;;;75.45;;
57746;SDS011;43580;44.014;20.466;2022-10-12T03:02:09;112.15;;;79.80;;
57746;SDS011;43580;44.014;20.466;2022-10-12T03:04:36;109.07;;;78.30;;
57746;SDS011;43580;44.014;20.466;2022-10-12T03:07:02;109.43;;;73.35;;
57746;SDS011;43580;44.014;20.466;2022-10-12T03:09:28;109.82;;;75.00;;
57746;SDS011;43580;44.014;20.466;2022-10-12T03:11:54;104.60;;;75.13;;
57746;SDS011;43580;44.014;20.466;2022-10-12T03:14:21;108.25;;;72.10;;
57746;SDS011;43580;44.014;20.466;2022-10-12T03:16:47;102.68;;;73.95;;
57746;SDS011;43580;44.014;20.466;2022-10-12T03:19:13;99.25;;;71.55;;
57746;SDS011;43580;44.014;20.466;2022-10-12T03:21:39;102.05;;;70.80;;
57746;SDS011;43580;44.014;20.466;2022-10-12T03:24:06;97.68;;;70.65;;
57746;SDS011;43580;44.014;20.466;2022-10-12T03:26:32;108.32;;;71.95;;
57746;SDS011;43580;44.014;20.466;2022-10-12T03:28:58;103.65;;;71.88;;
57746;SDS011;43580;44.014;20.466;2022-10-12T03:31:24;95.78;;;68.22;;
57746;SDS011;43580;44.014;20.466;2022-10-12T03:33:50;102.53;;;70.93;;
57746;SDS011;43580;44.014;20.466;2022-10-12T03:36:16;103.43;;;70.10;;
57746;SDS011;43580;44.014;20.466;2022-10-12T03:38:43;111.80;;;77.35;;
57746;SDS011;43580;44.014;20.466;2022-10-12T03:41:09;103.00;;;73.63;;
57746;SDS011;43580;44.014;20.466;2022-10-12T03:43:35;102.88;;;70.80;;
57746;SDS011;43580;44.014;20.466;2022-10-12T03:46:01;106.07;;;72.53;;
57746;SDS011;43580;44.014;20.466;2022-10-12T03:48:29;99.30;;;70.75;;
57746;SDS011;43580;44.014;20.466;2022-10-12T03:50:55;104.30;;;70.60;;
57746;SDS011;43580;44.014;20.466;2022-10-12T03:53:22;114.68;;;78.72;;
57746;SDS011;43580;44.014;20.466;2022-10-12T03:55:50;106.78;;;74.25;;
57746;SDS011;43580;44.014;20.466;2022-10-12T03:58:19;104.57;;;71.85;;
57746;SDS011;43580;44.014;20.466;2022-10-12T04:00:45;104.28;;;71.47;;
57746;SDS011;43580;44.014;20.466;2022-10-12T04:03:11;109.47;;;69.30;;
57746;SDS011;43580;44.014;20.466;2022-10-12T04:05:37;107.63;;;69.55;;
57746;SDS011;43580;44.014;20.466;2022-10-12T04:08:04;101.90;;;68.45;;
57746;SDS011;43580;44.014;20.466;2022-10-12T04:10:30;107.53;;;71.65;;
57746;SDS011;43580;44.014;20.466;2022-10-12T04:12:56;104.45;;;70.10;;
57746;SDS011;43580;44.014;20.466;2022-10-12T04:15:22;104.80;;;68.97;;
57746;SDS011;43580;44.014;20.466;2022-10-12T04:17:48;100.82;;;69.93;;
57746;SDS011;43580;44.014;20.466;2022-10-12T04:20:14;108.80;;;72.15;;
57746;SDS011;43580;44.014;20.466;2022-10-12T04:22:40;101.93;;;71.05;;
57746;SDS011;43580;44.014;20.466;2022-10-12T04:25:06;118.90;;;77.85;;
57746;SDS011;43580;44.014;20.466;2022-10-12T04:27:33;102.35;;;71.10;;
57746;SDS011;43580;44.014;20.466;2022-10-12T04:29:59;113.75;;;74.45;;
57746;SDS011;43580;44.014;20.466;2022-10-12T04:32:25;98.47;;;69.07;;
57746;SDS011;43580;44.014;20.466;2022-10-12T04:34:56;103.65;;;71.63;;
57746;SDS011;43580;44.014;20.466;2022-10-12T04:37:22;106.38;;;72.10;;
57746;SDS011;43580;44.014;20.466;2022-10-12T04:39:48;105.63;;;73.47;;
57746;SDS011;43580;44.014;20.466;2022-10-12T04:42:14;106.95;;;72.25;;
57746;SDS011;43580;44.014;20.466;2022-10-12T04:44:40;109.82;;;72.35;;
57746;SDS011;43580;44.014;20.466;2022-10-12T04:47:06;114.57;;;74.72;;
57746;SDS011;43580;44.014;20.466;2022-10-12T04:49:32;111.00;;;73.65;;
57746;SDS011;43580;44.014;20.466;2022-10-12T04:51:58;107.60;;;71.18;;
57746;SDS011;43580;44.014;20.466;2022-10-12T04:54:24;118.57;;;73.22;;
57746;SDS011;43580;44.014;20.466;2022-10-12T04:56:53;112.72;;;72.00;;
57746;SDS011;43580;44.014;20.466;2022-10-12T04:59:19;102.72;;;70.57;;
57746;SDS011;43580;44.014;20.466;2022-10-12T05:01:45;105.32;;;70.07;;
57746;SDS011;43580;44.014;20.466;2022-10-12T05:04:11;103.65;;;72.20;;
57746;SDS011;43580;44.014;20.466;2022-10-12T05:06:37;105.45;;;72.47;;
57746;SDS011;43580;44.014;20.466;2022-10-12T05:09:03;110.05;;;74.90;;
57746;SDS011;43580;44.014;20.466;2022-10-12T05:11:29;105.35;;;73.90;;
57746;SDS011;43580;44.014;20.466;2022-10-12T05:13:55;109.72;;;74.70;;
57746;SDS011;43580;44.014;20.466;2022-10-12T05:16:22;106.43;;;73.18;;
57746;SDS011;43580;44.014;20.466;2022-10-12T05:18:48;107.13;;;71.60;;
57746;SDS011;43580;44.014;20.466;2022-10-12T05:21:14;96.93;;;71.00;;
57746;SDS011;43580;44.014;20.466;2022-10-12T05:23:40;101.82;;;70.97;;
57746;SDS011;43580;44.014;20.466;2022-10-12T05:26:11;107.82;;;76.80;;
57746;SDS011;43580;44.014;20.466;2022-10-12T05:28:37;112.18;;;79.00;;
57746;SDS011;43580;44.014;20.466;2022-10-12T05:31:03;115.45;;;80.82;;
57746;SDS011;43580;44.014;20.466;2022-10-12T05:33:29;113.18;;;78.07;;
57746;SDS011;43580;44.014;20.466;2022-10-12T05:35:55;109.72;;;75.40;;
57746;SDS011;43580;44.014;20.466;2022-10-12T05:38:21;111.13;;;72.85;;
57746;SDS011;43580;44.014;20.466;2022-10-12T05:40:50;107.10;;;73.45;;
57746;SDS011;43580;44.014;20.466;2022-10-12T05:43:16;112.32;;;74.28;;
57746;SDS011;43580;44.014;20.466;2022-10-12T05:45:42;108.43;;;73.82;;
57746;SDS011;43580;44.014;20.466;2022-10-12T05:48:09;118.80;;;79.30;;
57746;SDS011;43580;44.014;20.466;2022-10-12T05:50:35;106.40;;;74.30;;
57746;SDS011;43580;44.014;20.466;2022-10-12T05:53:01;106.53;;;74.75;;
57746;SDS011;43580;44.014;20.466;2022-10-12T05:55:27;104.68;;;74.00;;
57746;SDS011;43580;44.014;20.466;2022-10-12T05:57:58;105.47;;;73.10;;
57746;SDS011;43580;44.014;20.466;2022-10-12T06:00:24;104.60;;;71.70;;
57746;SDS011;43580;44.014;20.466;2022-10-12T06:02:50;125.18;;;81.22;;
57746;SDS011;43580;44.014;20.466;2022-10-12T06:05:16;106.05;;;74.80;;
57746;SDS011;43580;44.014;20.466;2022-10-12T06:07:42;99.80;;;70.85;;
57746;SDS011;43580;44.014;20.466;2022-10-12T06:10:10;100.68;;;69.97;;
57746;SDS011;43580;44.014;20.466;2022-10-12T06:12:37;117.18;;;81.18;;
57746;SDS011;43580;44.014;20.466;2022-10-12T06:15:03;132.43;;;85.50;;
57746;SDS011;43580;44.014;20.466;2022-10-12T06:17:32;111.65;;;75.20;;
57746;SDS011;43580;44.014;20.466;2022-10-12T06:19:58;107.72;;;70.95;;
57746;SDS011;43580;44.014;20.466;2022-10-12T06:22:24;99.60;;;68.80;;
57746;SDS011;43580;44.014;20.466;2022-10-12T06:24:50;110.38;;;78.07;;
57746;SDS011;43580;44.014;20.466;2022-10-12T06:27:16;131.85;;;89.88;;
57746;SDS011;43580;44.014;20.466;2022-10-12T06:29:43;148.38;;;98.35;;
57746;SDS011;43580;44.014;20.466;2022-10-12T06:32:09;119.43;;;81.93;;
57746;SDS011;43580;44.014;20.466;2022-10-12T06:34:36;113.57;;;78.88;;
57746;SDS011;43580;44.014;20.466;2022-10-12T06:37:02;102.07;;;72.47;;
57746;SDS011;43580;44.014;20.466;2022-10-12T06:39:28;95.07;;;66.53;;
57746;SDS011;43580;44.014;20.466;2022-10-12T06:41:54;95.60;;;65.70;;
57746;SDS011;43580;44.014;20.466;2022-10-12T06:44:22;89.45;;;64.72;;
57746;SDS011;43580;44.014;20.466;2022-10-12T06:46:49;94.18;;;65.47;;
57746;SDS011;43580;44.014;20.466;2022-10-12T06:49:15;96.07;;;67.53;;
57746;SDS011;43580;44.014;20.466;2022-10-12T06:51:41;95.15;;;67.93;;
57746;SDS011;43580;44.014;20.466;2022-10-12T06:54:07;92.93;;;65.88;;
57746;SDS011;43580;44.014;20.466;2022-10-12T06:56:34;97.38;;;67.05;;
57746;SDS011;43580;44.014;20.466;2022-10-12T06:59:02;94.28;;;65.47;;
57746;SDS011;43580;44.014;20.466;2022-10-12T07:01:28;95.70;;;65.47;;
57746;SDS011;43580;44.014;20.466;2022-10-12T07:03:54;104.72;;;72.38;;
57746;SDS011;43580;44.014;20.466;2022-10-12T07:06:22;107.05;;;73.63;;
57746;SDS011;43580;44.014;20.466;2022-10-12T07:08:52;96.20;;;61.50;;
57746;SDS011;43580;44.014;20.466;2022-10-12T07:11:18;117.20;;;84.00;;
57746;SDS011;43580;44.014;20.466;2022-10-12T07:13:44;89.38;;;63.80;;
57746;SDS011;43580;44.014;20.466;2022-10-12T07:16:10;95.25;;;63.67;;
57746;SDS011;43580;44.014;20.466;2022-10-12T07:18:38;92.93;;;62.47;;
57746;SDS011;43580;44.014;20.466;2022-10-12T07:21:05;88.43;;;60.72;;
57746;SDS011;43580;44.014;20.466;2022-10-12T07:23:31;84.72;;;58.08;;
57746;SDS011;43580;44.014;20.466;2022-10-12T07:25:57;89.18;;;60.80;;
57746;SDS011;43580;44.014;20.466;2022-10-12T07:28:24;87.40;;;60.97;;
57746;SDS011;43580;44.014;20.466;2022-10-12T07:30:50;90.97;;;61.42;;
57746;SDS011;43580;44.014;20.466;2022-10-12T07:33:16;90.28;;;63.45;;
57746;SDS011;43580;44.014;20.466;2022-10-12T07:35:42;91.15;;;61.63;;
57746;SDS011;43580;44.014;20.466;2022-10-12T07:38:08;87.03;;;58.17;;
57746;SDS011;43580;44.014;20.466;2022-10-12T07:40:35;82.93;;;57.30;;
57746;SDS011;43580;44.014;20.466;2022-10-12T07:43:02;88.32;;;59.42;;
57746;SDS011;43580;44.014;20.466;2022-10-12T07:45:28;87.18;;;58.63;;
57746;SDS011;43580;44.014;20.466;2022-10-12T07:47:54;80.05;;;57.95;;
57746;SDS011;43580;44.014;20.466;2022-10-12T07:50:20;78.00;;;53.03;;
57746;SDS011;43580;44.014;20.466;2022-10-12T07:52:47;81.30;;;57.40;;
57746;SDS011;43580;44.014;20.466;2022-10-12T07:55:13;74.97;;;51.80;;
57746;SDS011;43580;44.014;20.466;2022-10-12T07:57:39;77.18;;;53.67;;
57746;SDS011;43580;44.014;20.466;2022-10-12T08:00:06;76.03;;;54.83;;
57746;SDS011;43580;44.014;20.466;2022-10-12T08:02:32;74.00;;;52.38;;
57746;SDS011;43580;44.014;20.466;2022-10-12T08:05:03;75.35;;;52.75;;
57746;SDS011;43580;44.014;20.466;2022-10-12T08:07:29;73.80;;;52.75;;
57746;SDS011;43580;44.014;20.466;2022-10-12T08:09:55;76.38;;;55.35;;
57746;SDS011;43580;44.014;20.466;2022-10-12T08:12:21;76.10;;;54.00;;
57746;SDS011;43580;44.014;20.466;2022-10-12T08:14:47;75.88;;;55.22;;
57746;SDS011;43580;44.014;20.466;2022-10-12T08:17:16;74.60;;;51.65;;
57746;SDS011;43580;44.014;20.466;2022-10-12T08:19:42;71.20;;;49.28;;
57746;SDS011;43580;44.014;20.466;2022-10-12T08:22:08;79.70;;;54.05;;
57746;SDS011;43580;44.014;20.466;2022-10-12T08:24:36;81.97;;;55.40;;
57746;SDS011;43580;44.014;20.466;2022-10-12T08:27:02;72.70;;;51.13;;
57746;SDS011;43580;44.014;20.466;2022-10-12T08:29:28;66.90;;;48.70;;
57746;SDS011;43580;44.014;20.466;2022-10-12T08:31:54;77.20;;;51.80;;
57746;SDS011;43580;44.014;20.466;2022-10-12T08:34:23;72.85;;;51.50;;
57746;SDS011;43580;44.014;20.466;2022-10-12T08:36:49;76.28;;;54.22;;
57746;SDS011;43580;44.014;20.466;2022-10-12T08:39:16;80.53;;;53.67;;
57746;SDS011;43580;44.014;20.466;2022-10-12T08:47:07;76.82;;;53.38;;
57746;SDS011;43580;44.014;20.466;2022-10-12T08:52:04;75.25;;;52.80;;
57746;SDS011;43580;44.014;20.466;2022-10-12T08:54:34;77.65;;;53.30;;
57746;SDS011;43580;44.014;20.466;2022-10-12T08:57:01;79.55;;;53.65;;
57746;SDS011;43580;44.014;20.466;2022-10-12T08:59:27;75.03;;;53.10;;
57746;SDS011;43580;44.014;20.466;2022-10-12T09:15:00;75.68;;;49.88;;
57746;SDS011;43580;44.014;20.466;2022-10-12T09:17:32;72.72;;;48.30;;
57746;SDS011;43580;44.014;20.466;2022-10-12T09:20:04;65.70;;;48.38;;
57746;SDS011;43580;44.014;20.466;2022-10-12T09:22:32;63.55;;;46.97;;
57746;SDS011;43580;44.014;20.466;2022-10-12T09:24:59;62.80;;;49.10;;
57746;SDS011;43580;44.014;20.466;2022-10-12T09:27:28;67.18;;;47.55;;
57746;SDS011;43580;44.014;20.466;2022-10-12T09:29:56;64.35;;;47.78;;
57746;SDS011;43580;44.014;20.466;2022-10-12T09:32:38;65.47;;;47.13;;
57746;SDS011;43580;44.014;20.466;2022-10-12T09:35:05;63.55;;;46.10;;
57746;SDS011;43580;44.014;20.466;2022-10-12T09:37:32;59.75;;;43.42;;
57746;SDS011;43580;44.014;20.466;2022-10-12T09:40:00;61.30;;;45.70;;
57746;SDS011;43580;44.014;20.466;2022-10-12T09:42:27;58.92;;;42.88;;
57746;SDS011;43580;44.014;20.466;2022-10-12T09:44:58;61.08;;;44.20;;
57746;SDS011;43580;44.014;20.466;2022-10-12T09:47:31;56.72;;;43.97;;
57746;SDS011;43580;44.014;20.466;2022-10-12T09:49:58;58.78;;;43.38;;
57746;SDS011;43580;44.014;20.466;2022-10-12T09:52:30;64.28;;;47.70;;
57746;SDS011;43580;44.014;20.466;2022-10-12T09:55:15;55.80;;;43.75;;
57746;SDS011;43580;44.014;20.466;2022-10-12T09:57:50;61.05;;;44.50;;
57746;SDS011;43580;44.014;20.466;2022-10-12T10:00:24;67.82;;;47.53;;
57746;SDS011;43580;44.014;20.466;2022-10-12T10:02:51;61.85;;;46.35;;
57746;SDS011;43580;44.014;20.466;2022-10-12T10:05:33;57.88;;;42.42;;
57746;SDS011;43580;44.014;20.466;2022-10-12T10:08:21;53.67;;;40.00;;
57746;SDS011;43580;44.014;20.466;2022-10-12T10:10:52;52.53;;;39.50;;
57746;SDS011;43580;44.014;20.466;2022-10-12T10:13:20;54.65;;;39.83;;
57746;SDS011;43580;44.014;20.466;2022-10-12T10:15:47;66.25;;;45.17;;
57746;SDS011;43580;44.014;20.466;2022-10-12T10:18:20;60.58;;;45.92;;
57746;SDS011;43580;44.014;20.466;2022-10-12T10:20:50;63.85;;;45.95;;
57746;SDS011;43580;44.014;20.466;2022-10-12T10:25:56;60.25;;;44.72;;
57746;SDS011;43580;44.014;20.466;2022-10-12T10:28:30;59.13;;;42.47;;
57746;SDS011;43580;44.014;20.466;2022-10-12T10:31:00;54.80;;;41.92;;
57746;SDS011;43580;44.014;20.466;2022-10-12T10:33:27;51.78;;;39.80;;
57746;SDS011;43580;44.014;20.466;2022-10-12T10:35:57;52.47;;;40.05;;
57746;SDS011;43580;44.014;20.466;2022-10-12T10:38:24;56.92;;;44.03;;
57746;SDS011;43580;44.014;20.466;2022-10-12T10:40:51;60.63;;;44.30;;
57746;SDS011;43580;44.014;20.466;2022-10-12T10:43:24;51.70;;;39.78;;
57746;SDS011;43580;44.014;20.466;2022-10-12T10:45:56;54.20;;;40.33;;
57746;SDS011;43580;44.014;20.466;2022-10-12T10:48:26;79.57;;;56.15;;
57746;SDS011;43580;44.014;20.466;2022-10-12T10:50:55;50.80;;;41.03;;
57746;SDS011;43580;44.014;20.466;2022-10-12T10:53:25;49.67;;;39.15;;
57746;SDS011;43580;44.014;20.466;2022-10-12T11:00:57;53.55;;;40.30;;
57746;SDS011;43580;44.014;20.466;2022-10-12T11:06:24;51.67;;;38.97;;
57746;SDS011;43580;44.014;20.466;2022-10-12T11:08:55;48.97;;;37.13;;
57746;SDS011;43580;44.014;20.466;2022-10-12T11:11:24;51.80;;;38.92;;
57746;SDS011;43580;44.014;20.466;2022-10-12T11:13:58;43.65;;;36.60;;
57746;SDS011;43580;44.014;20.466;2022-10-12T11:18:58;53.05;;;36.38;;
57746;SDS011;43580;44.014;20.466;2022-10-12T11:21:31;48.28;;;38.60;;
57746;SDS011;43580;44.014;20.466;2022-10-12T11:26:37;49.67;;;37.45;;
57746;SDS011;43580;44.014;20.466;2022-10-12T11:29:04;50.92;;;37.97;;
57746;SDS011;43580;44.014;20.466;2022-10-12T11:31:37;48.08;;;36.80;;
57746;SDS011;43580;44.014;20.466;2022-10-12T11:34:14;46.55;;;36.08;;
57746;SDS011;43580;44.014;20.466;2022-10-12T11:36:42;46.03;;;36.60;;
57746;SDS011;43580;44.014;20.466;2022-10-12T11:39:21;50.28;;;37.53;;
57746;SDS011;43580;44.014;20.466;2022-10-12T11:41:51;49.65;;;38.45;;
57746;SDS011;43580;44.014;20.466;2022-10-12T11:44:21;44.72;;;34.97;;
57746;SDS011;43580;44.014;20.466;2022-10-12T11:46:56;62.75;;;36.92;;
57746;SDS011;43580;44.014;20.466;2022-10-12T11:49:34;41.83;;;34.92;;
57746;SDS011;43580;44.014;20.466;2022-10-12T11:52:04;47.20;;;34.42;;
57746;SDS011;43580;44.014;20.466;2022-10-12T11:57:04;44.80;;;34.22;;
57746;SDS011;43580;44.014;20.466;2022-10-12T12:04:44;46.75;;;34.22;;
57746;SDS011;43580;44.014;20.466;2022-10-12T12:09:58;42.22;;;30.85;;
57746;SDS011;43580;44.014;20.466;2022-10-12T12:12:27;37.88;;;30.60;;
57746;SDS011;43580;44.014;20.466;2022-10-12T12:17:23;41.08;;;30.63;;
57746;SDS011;43580;44.014;20.466;2022-10-12T12:19:57;41.70;;;32.60;;
57746;SDS011;43580;44.014;20.466;2022-10-12T12:24:58;38.65;;;29.00;;
57746;SDS011;43580;44.014;20.466;2022-10-12T12:29:54;37.45;;;30.90;;
57746;SDS011;43580;44.014;20.466;2022-10-12T12:32:22;41.10;;;34.47;;
57746;SDS011;43580;44.014;20.466;2022-10-12T12:34:55;37.67;;;32.15;;
57746;SDS011;43580;44.014;20.466;2022-10-12T12:37:25;39.10;;;33.97;;
57746;SDS011;43580;44.014;20.466;2022-10-12T12:39:54;41.08;;;32.75;;
57746;SDS011;43580;44.014;20.466;2022-10-12T12:42:22;49.38;;;38.63;;
57746;SDS011;43580;44.014;20.466;2022-10-12T12:45:17;41.85;;;32.72;;
57746;SDS011;43580;44.014;20.466;2022-10-12T12:47:44;42.50;;;32.00;;
57746;SDS011;43580;44.014;20.466;2022-10-12T12:53:01;37.58;;;32.88;;
57746;SDS011;43580;44.014;20.466;2022-10-12T12:55:34;39.40;;;31.67;;
57746;SDS011;43580;44.014;20.466;2022-10-12T13:19:13;46.33;;;34.97;;
57746;SDS011;43580;44.014;20.466;2022-10-12T13:21:40;40.80;;;33.70;;
57746;SDS011;43580;44.014;20.466;2022-10-12T13:24:20;43.30;;;35.85;;
57746;SDS011;43580;44.014;20.466;2022-10-12T13:27:35;44.30;;;33.15;;
57746;SDS011;43580;44.014;20.466;2022-10-12T13:29:44;82.50;;;56.28;;
57746;SDS011;43580;44.014;20.466;2022-10-12T13:32:18;40.53;;;32.10;;
57746;SDS011;43580;44.014;20.466;2022-10-12T13:34:45;40.28;;;33.58;;
57746;SDS011;43580;44.014;20.466;2022-10-12T13:37:13;45.38;;;35.22;;
57746;SDS011;43580;44.014;20.466;2022-10-12T13:39:41;40.67;;;35.33;;
57746;SDS011;43580;44.014;20.466;2022-10-12T13:42:24;43.97;;;34.28;;
57746;SDS011;43580;44.014;20.466;2022-10-12T13:44:51;44.65;;;35.75;;
57746;SDS011;43580;44.014;20.466;2022-10-12T13:47:24;42.53;;;33.00;;
57746;SDS011;43580;44.014;20.466;2022-10-12T13:49:51;58.00;;;45.25;;
57746;SDS011;43580;44.014;20.466;2022-10-12T13:52:19;46.28;;;34.20;;
57746;SDS011;43580;44.014;20.466;2022-10-12T13:54:47;42.97;;;32.30;;
57746;SDS011;43580;44.014;20.466;2022-10-12T13:57:18;48.28;;;37.42;;
57746;SDS011;43580;44.014;20.466;2022-10-12T13:59:46;47.13;;;34.08;;
57746;SDS011;43580;44.014;20.466;2022-10-12T14:02:23;80.88;;;68.13;;
57746;SDS011;43580;44.014;20.466;2022-10-12T14:04:51;44.92;;;36.05;;
57746;SDS011;43580;44.014;20.466;2022-10-12T14:07:18;71.70;;;56.03;;
57746;SDS011;43580;44.014;20.466;2022-10-12T14:09:50;121.78;;;76.30;;
57746;SDS011;43580;44.014;20.466;2022-10-12T14:12:20;42.83;;;32.10;;
57746;SDS011;43580;44.014;20.466;2022-10-12T14:14:46;45.88;;;35.25;;
57746;SDS011;43580;44.014;20.466;2022-10-12T14:17:13;57.58;;;40.75;;
57746;SDS011;43580;44.014;20.466;2022-10-12T14:22:05;42.13;;;30.80;;
57746;SDS011;43580;44.014;20.466;2022-10-12T14:24:33;45.65;;;30.63;;
57746;SDS011;43580;44.014;20.466;2022-10-12T14:27:00;43.30;;;31.38;;
57746;SDS011;43580;44.014;20.466;2022-10-12T14:32:00;44.10;;;30.80;;
57746;SDS011;43580;44.014;20.466;2022-10-12T14:39:25;41.03;;;31.63;;
57746;SDS011;43580;44.014;20.466;2022-10-12T14:41:51;46.00;;;32.45;;
57746;SDS011;43580;44.014;20.466;2022-10-12T14:44:18;49.15;;;34.63;;
57746;SDS011;43580;44.014;20.466;2022-10-12T14:47:03;40.92;;;34.30;;
57746;SDS011;43580;44.014;20.466;2022-10-12T14:49:37;45.55;;;33.42;;
57746;SDS011;43580;44.014;20.466;2022-10-12T14:52:05;41.92;;;32.97;;
57746;SDS011;43580;44.014;20.466;2022-10-12T14:54:31;47.72;;;34.13;;
57746;SDS011;43580;44.014;20.466;2022-10-12T14:57:00;52.17;;;40.83;;
57746;SDS011;43580;44.014;20.466;2022-10-12T14:59:35;48.00;;;34.95;;
57746;SDS011;43580;44.014;20.466;2022-10-12T15:02:01;49.78;;;34.88;;
57746;SDS011;43580;44.014;20.466;2022-10-12T15:04:27;48.30;;;36.33;;
57746;SDS011;43580;44.014;20.466;2022-10-12T15:06:53;52.78;;;39.63;;
57746;SDS011;43580;44.014;20.466;2022-10-12T15:09:19;46.58;;;37.38;;
57746;SDS011;43580;44.014;20.466;2022-10-12T15:11:45;55.15;;;38.80;;
57746;SDS011;43580;44.014;20.466;2022-10-12T15:14:11;48.85;;;37.42;;
57746;SDS011;43580;44.014;20.466;2022-10-12T15:16:38;53.40;;;40.00;;
57746;SDS011;43580;44.014;20.466;2022-10-12T15:19:04;48.85;;;37.08;;
57746;SDS011;43580;44.014;20.466;2022-10-12T15:21:30;54.15;;;40.47;;
57746;SDS011;43580;44.014;20.466;2022-10-12T15:23:56;49.30;;;35.17;;
57746;SDS011;43580;44.014;20.466;2022-10-12T15:26:22;53.53;;;41.58;;
57746;SDS011;43580;44.014;20.466;2022-10-12T15:28:48;46.20;;;36.40;;
57746;SDS011;43580;44.014;20.466;2022-10-12T15:31:14;52.58;;;36.88;;
57746;SDS011;43580;44.014;20.466;2022-10-12T15:33:41;51.80;;;39.78;;
57746;SDS011;43580;44.014;20.466;2022-10-12T15:36:07;50.75;;;40.63;;
57746;SDS011;43580;44.014;20.466;2022-10-12T15:38:36;49.38;;;39.05;;
57746;SDS011;43580;44.014;20.466;2022-10-12T15:41:02;51.97;;;40.15;;
57746;SDS011;43580;44.014;20.466;2022-10-12T15:43:28;51.17;;;38.58;;
57746;SDS011;43580;44.014;20.466;2022-10-12T15:45:55;71.35;;;57.45;;
57746;SDS011;43580;44.014;20.466;2022-10-12T15:48:23;88.00;;;65.82;;
57746;SDS011;43580;44.014;20.466;2022-10-12T15:50:51;61.42;;;42.10;;
57746;SDS011;43580;44.014;20.466;2022-10-12T15:53:22;63.33;;;50.92;;
57746;SDS011;43580;44.014;20.466;2022-10-12T15:55:48;67.75;;;55.47;;
57746;SDS011;43580;44.014;20.466;2022-10-12T15:58:15;73.97;;;52.20;;
57746;SDS011;43580;44.014;20.466;2022-10-12T16:00:41;66.25;;;52.78;;
57746;SDS011;43580;44.014;20.466;2022-10-12T16:03:08;78.30;;;51.75;;